sensor_id;sensor_type;location;lat;lon;timestamp;temperature;humidity
5276;DHT22;2661;50.786;12.728;2022-07-21T00:01:55;21.70;99.90
5276;DHT22;2661;50.786;12.728;2022-07-21T00:04:22;21.70;99.90
5276;DHT22;2661;50.786;12.728;2022-07-21T00:06:49;21.70;99.90
5276;DHT22;2661;50.786;12.728;2022-07-21T00:09:16;21.90;99.90
5276;DHT22;2661;50.786;12.728;2022-07-21T00:11:43;22.10;99.90
5276;DHT22;2661;50.786;12.728;2022-07-21T00:14:10;22.20;99.90
5276;DHT22;2661;50.786;12.728;2022-07-21T00:16:38;22.40;99.90
5276;DHT22;2661;50.786;12.728;2022-07-21T00:19:06;22.70;99.90
5276;DHT22;2661;50.786;12.728;2022-07-21T00:21:33;23.00;99.90
5276;DHT22;2661;50.786;12.728;2022-07-21T00:23:59;23.20;99.90
5276;DHT22;2661;50.786;12.728;2022-07-21T00:26:26;23.30;99.90
5276;DHT22;2661;50.786;12.728;2022-07-21T00:28:53;23.40;99.90
5276;DHT22;2661;50.786;12.728;2022-07-21T00:31:21;23.40;99.90
5276;DHT22;2661;50.786;12.728;2022-07-21T00:33:47;23.40;99.90
5276;DHT22;2661;50.786;12.728;2022-07-21T00:36:18;23.40;99.90
5276;DHT22;2661;50.786;12.728;2022-07-21T00:38:45;23.50;99.90
5276;DHT22;2661;50.786;12.728;2022-07-21T00:41:12;23.60;99.90
5276;DHT22;2661;50.786;12.728;2022-07-21T00:43:38;23.50;99.90
5276;DHT22;2661;50.786;12.728;2022-07-21T00:46:05;23.50;99.90
5276;DHT22;2661;50.786;12.728;2022-07-21T00:48:32;23.40;99.90
5276;DHT22;2661;50.786;12.728;2022-07-21T00:50:59;23.30;99.90
5276;DHT22;2661;50.786;12.728;2022-07-21T00:53:26;23.30;99.90
5276;DHT22;2661;50.786;12.728;2022-07-21T00:55:53;23.30;99.90
5276;DHT22;2661;50.786;12.728;2022-07-21T00:58:20;23.30;99.90
5276;DHT22;2661;50.786;12.728;2022-07-21T01:00:48;23.30;99.90
5276;DHT22;2661;50.786;12.728;2022-07-21T01:03:15;23.30;99.90
5276;DHT22;2661;50.786;12.728;2022-07-21T01:05:42;23.40;99.90
5276;DHT22;2661;50.786;12.728;2022-07-21T01:08:08;23.40;99.90
5276;DHT22;2661;50.786;12.728;2022-07-21T01:10:36;23.40;99.90
5276;DHT22;2661;50.786;12.728;2022-07-21T01:13:02;23.30;99.90
5276;DHT22;2661;50.786;12.728;2022-07-21T01:15:29;23.40;99.90
5276;DHT22;2661;50.786;12.728;2022-07-21T01:17:57;23.30;99.90
5276;DHT22;2661;50.786;12.728;2022-07-21T01:20:23;23.30;99.90
5276;DHT22;2661;50.786;12.728;2022-07-21T01:22:51;23.20;99.90
5276;DHT22;2661;50.786;12.728;2022-07-21T01:25:19;23.10;99.90
5276;DHT22;2661;50.786;12.728;2022-07-21T01:27:46;23.10;99.90
5276;DHT22;2661;50.786;12.728;2022-07-21T01:30:14;23.10;99.90
5276;DHT22;2661;50.786;12.728;2022-07-21T01:32:41;23.10;99.90
5276;DHT22;2661;50.786;12.728;2022-07-21T01:35:10;23.00;99.90
5276;DHT22;2661;50.786;12.728;2022-07-21T01:37:38;22.90;99.90
5276;DHT22;2661;50.786;12.728;2022-07-21T01:40:07;22.80;99.90
5276;DHT22;2661;50.786;12.728;2022-07-21T01:42:52;22.80;99.90
5276;DHT22;2661;50.786;12.728;2022-07-21T01:45:20;22.80;99.90
5276;DHT22;2661;50.786;12.728;2022-07-21T01:47:47;22.80;99.90
5276;DHT22;2661;50.786;12.728;2022-07-21T01:50:14;22.70;99.90
5276;DHT22;2661;50.786;12.728;2022-07-21T01:52:41;22.60;99.90
5276;DHT22;2661;50.786;12.728;2022-07-21T01:55:07;22.50;99.90
5276;DHT22;2661;50.786;12.728;2022-07-21T01:57:34;22.50;99.90
5276;DHT22;2661;50.786;12.728;2022-07-21T02:00:01;22.40;99.90
5276;DHT22;2661;50.786;12.728;2022-07-21T02:02:28;22.30;99.90
5276;DHT22;2661;50.786;12.728;2022-07-21T02:04:54;22.20;99.90
5276;DHT22;2661;50.786;12.728;2022-07-21T02:07:21;22.10;99.90
5276;DHT22;2661;50.786;12.728;2022-07-21T02:09:48;22.00;99.90
5276;DHT22;2661;50.786;12.728;2022-07-21T02:12:14;21.90;99.90
5276;DHT22;2661;50.786;12.728;2022-07-21T02:14:41;21.70;99.90
5276;DHT22;2661;50.786;12.728;2022-07-21T02:17:08;21.60;99.90
5276;DHT22;2661;50.786;12.728;2022-07-21T02:19:35;21.50;99.90
5276;DHT22;2661;50.786;12.728;2022-07-21T02:22:02;21.40;99.90
5276;DHT22;2661;50.786;12.728;2022-07-21T02:24:28;21.30;99.90
5276;DHT22;2661;50.786;12.728;2022-07-21T02:26:55;21.20;99.90
5276;DHT22;2661;50.786;12.728;2022-07-21T02:29:22;21.20;99.90
5276;DHT22;2661;50.786;12.728;2022-07-21T02:31:49;21.20;99.90
5276;DHT22;2661;50.786;12.728;2022-07-21T02:34:16;21.10;99.90
5276;DHT22;2661;50.786;12.728;2022-07-21T02:36:42;21.00;99.90
5276;DHT22;2661;50.786;12.728;2022-07-21T02:39:09;21.00;99.90
5276;DHT22;2661;50.786;12.728;2022-07-21T02:41:36;20.90;99.90
5276;DHT22;2661;50.786;12.728;2022-07-21T02:44:02;20.80;99.90
5276;DHT22;2661;50.786;12.728;2022-07-21T02:46:29;20.60;99.90
5276;DHT22;2661;50.786;12.728;2022-07-21T02:48:56;20.60;99.90
5276;DHT22;2661;50.786;12.728;2022-07-21T02:51:23;20.60;99.90
5276;DHT22;2661;50.786;12.728;2022-07-21T02:53:49;20.50;99.90
5276;DHT22;2661;50.786;12.728;2022-07-21T02:56:17;20.50;99.90
5276;DHT22;2661;50.786;12.728;2022-07-21T02:58:44;20.40;99.90
5276;DHT22;2661;50.786;12.728;2022-07-21T03:01:11;20.30;99.90
5276;DHT22;2661;50.786;12.728;2022-07-21T03:03:38;20.20;99.90
5276;DHT22;2661;50.786;12.728;2022-07-21T03:06:05;20.20;99.90
5276;DHT22;2661;50.786;12.728;2022-07-21T03:08:31;20.10;99.90
5276;DHT22;2661;50.786;12.728;2022-07-21T03:10:58;20.00;99.90
5276;DHT22;2661;50.786;12.728;2022-07-21T03:13:25;19.90;99.90
5276;DHT22;2661;50.786;12.728;2022-07-21T03:15:52;19.90;99.90
5276;DHT22;2661;50.786;12.728;2022-07-21T03:18:19;19.80;99.90
5276;DHT22;2661;50.786;12.728;2022-07-21T03:20:47;19.80;99.90
5276;DHT22;2661;50.786;12.728;2022-07-21T03:23:13;19.80;99.90
5276;DHT22;2661;50.786;12.728;2022-07-21T03:25:40;19.70;99.90
5276;DHT22;2661;50.786;12.728;2022-07-21T03:28:07;19.80;99.90
5276;DHT22;2661;50.786;12.728;2022-07-21T03:30:34;19.80;99.90
5276;DHT22;2661;50.786;12.728;2022-07-21T03:33:03;19.90;99.90
5276;DHT22;2661;50.786;12.728;2022-07-21T03:35:30;19.80;99.90
5276;DHT22;2661;50.786;12.728;2022-07-21T03:37:58;19.80;99.90
5276;DHT22;2661;50.786;12.728;2022-07-21T03:40:26;19.80;99.90
5276;DHT22;2661;50.786;12.728;2022-07-21T03:42:54;19.70;99.90
5276;DHT22;2661;50.786;12.728;2022-07-21T03:45:21;19.80;99.90
5276;DHT22;2661;50.786;12.728;2022-07-21T03:47:48;19.70;99.90
5276;DHT22;2661;50.786;12.728;2022-07-21T03:50:15;19.80;99.90
5276;DHT22;2661;50.786;12.728;2022-07-21T03:52:47;19.80;99.90
5276;DHT22;2661;50.786;12.728;2022-07-21T03:55:14;19.90;99.90
5276;DHT22;2661;50.786;12.728;2022-07-21T03:57:57;19.80;99.90
5276;DHT22;2661;50.786;12.728;2022-07-21T04:00:25;19.80;99.90
5276;DHT22;2661;50.786;12.728;2022-07-21T04:02:52;19.80;99.90
5276;DHT22;2661;50.786;12.728;2022-07-21T04:05:19;19.90;99.90
5276;DHT22;2661;50.786;12.728;2022-07-21T04:07:47;20.00;99.90
5276;DHT22;2661;50.786;12.728;2022-07-21T04:10:15;20.00;99.90
5276;DHT22;2661;50.786;12.728;2022-07-21T04:12:42;20.10;99.90
5276;DHT22;2661;50.786;12.728;2022-07-21T04:15:09;20.10;99.90
5276;DHT22;2661;50.786;12.728;2022-07-21T04:17:36;20.20;99.90
5276;DHT22;2661;50.786;12.728;2022-07-21T04:20:04;20.20;99.90
5276;DHT22;2661;50.786;12.728;2022-07-21T04:22:31;20.30;99.90
5276;DHT22;2661;50.786;12.728;2022-07-21T04:24:57;20.30;99.90
5276;DHT22;2661;50.786;12.728;2022-07-21T04:27:26;20.50;99.90
5276;DHT22;2661;50.786;12.728;2022-07-21T04:29:53;20.60;99.90
5276;DHT22;2661;50.786;12.728;2022-07-21T04:32:20;20.70;99.90
5276;DHT22;2661;50.786;12.728;2022-07-21T04:34:47;20.70;99.90
5276;DHT22;2661;50.786;12.728;2022-07-21T04:37:14;20.80;99.90
5276;DHT22;2661;50.786;12.728;2022-07-21T04:39:40;20.90;99.90
5276;DHT22;2661;50.786;12.728;2022-07-21T04:42:07;20.90;99.90
5276;DHT22;2661;50.786;12.728;2022-07-21T04:44:34;20.90;99.90
5276;DHT22;2661;50.786;12.728;2022-07-21T04:47:01;21.00;99.90
5276;DHT22;2661;50.786;12.728;2022-07-21T04:49:28;21.00;99.90
5276;DHT22;2661;50.786;12.728;2022-07-21T04:51:54;20.90;99.90
5276;DHT22;2661;50.786;12.728;2022-07-21T04:54:29;20.80;99.90
5276;DHT22;2661;50.786;12.728;2022-07-21T04:56:56;20.80;99.90
5276;DHT22;2661;50.786;12.728;2022-07-21T04:59:23;20.80;99.90
5276;DHT22;2661;50.786;12.728;2022-07-21T05:01:51;20.90;99.90
5276;DHT22;2661;50.786;12.728;2022-07-21T05:04:18;21.00;99.90
5276;DHT22;2661;50.786;12.728;2022-07-21T05:06:45;21.10;99.90
5276;DHT22;2661;50.786;12.728;2022-07-21T05:09:11;21.20;99.90
5276;DHT22;2661;50.786;12.728;2022-07-21T05:11:38;21.20;99.90
5276;DHT22;2661;50.786;12.728;2022-07-21T05:14:05;21.40;99.90
5276;DHT22;2661;50.786;12.728;2022-07-21T05:16:40;21.40;99.90
5276;DHT22;2661;50.786;12.728;2022-07-21T05:19:07;21.60;99.90
5276;DHT22;2661;50.786;12.728;2022-07-21T05:21:34;21.60;99.90
5276;DHT22;2661;50.786;12.728;2022-07-21T05:24:00;21.70;99.90
5276;DHT22;2661;50.786;12.728;2022-07-21T05:26:27;21.70;99.90
5276;DHT22;2661;50.786;12.728;2022-07-21T05:28:54;21.60;99.90
5276;DHT22;2661;50.786;12.728;2022-07-21T05:31:21;21.50;99.90
5276;DHT22;2661;50.786;12.728;2022-07-21T05:33:48;21.50;99.90
5276;DHT22;2661;50.786;12.728;2022-07-21T05:36:15;21.40;99.90
5276;DHT22;2661;50.786;12.728;2022-07-21T05:38:41;21.30;99.90
5276;DHT22;2661;50.786;12.728;2022-07-21T05:41:08;21.20;99.90
5276;DHT22;2661;50.786;12.728;2022-07-21T05:43:35;21.20;99.90
5276;DHT22;2661;50.786;12.728;2022-07-21T05:46:02;21.20;99.90
5276;DHT22;2661;50.786;12.728;2022-07-21T05:48:28;21.10;99.90
5276;DHT22;2661;50.786;12.728;2022-07-21T05:50:55;21.10;99.90
5276;DHT22;2661;50.786;12.728;2022-07-21T05:53:22;21.10;99.90
5276;DHT22;2661;50.786;12.728;2022-07-21T05:55:49;21.20;99.90
5276;DHT22;2661;50.786;12.728;2022-07-21T05:58:16;21.20;99.90
5276;DHT22;2661;50.786;12.728;2022-07-21T06:00:45;21.30;99.90
5276;DHT22;2661;50.786;12.728;2022-07-21T06:03:32;21.40;99.90
5276;DHT22;2661;50.786;12.728;2022-07-21T06:05:58;21.50;99.90
5276;DHT22;2661;50.786;12.728;2022-07-21T06:08:25;21.70;99.90
5276;DHT22;2661;50.786;12.728;2022-07-21T06:10:52;21.90;99.90
5276;DHT22;2661;50.786;12.728;2022-07-21T06:13:19;22.10;99.90
5276;DHT22;2661;50.786;12.728;2022-07-21T06:15:45;22.30;99.90
5276;DHT22;2661;50.786;12.728;2022-07-21T06:18:12;22.50;99.90
5276;DHT22;2661;50.786;12.728;2022-07-21T06:20:39;22.60;99.90
5276;DHT22;2661;50.786;12.728;2022-07-21T06:23:07;22.80;99.90
5276;DHT22;2661;50.786;12.728;2022-07-21T06:25:33;22.90;99.90
5276;DHT22;2661;50.786;12.728;2022-07-21T06:28:00;23.00;99.90
5276;DHT22;2661;50.786;12.728;2022-07-21T06:30:27;23.10;99.90
5276;DHT22;2661;50.786;12.728;2022-07-21T06:32:54;23.10;99.90
5276;DHT22;2661;50.786;12.728;2022-07-21T06:35:21;23.20;99.90
5276;DHT22;2661;50.786;12.728;2022-07-21T06:37:47;23.30;99.90
5276;DHT22;2661;50.786;12.728;2022-07-21T06:40:14;23.30;99.90
5276;DHT22;2661;50.786;12.728;2022-07-21T06:42:41;23.50;99.90
5276;DHT22;2661;50.786;12.728;2022-07-21T06:45:28;23.70;99.90
5276;DHT22;2661;50.786;12.728;2022-07-21T06:48:04;23.80;99.90
5276;DHT22;2661;50.786;12.728;2022-07-21T06:50:31;24.00;99.90
5276;DHT22;2661;50.786;12.728;2022-07-21T06:52:58;24.00;99.90
5276;DHT22;2661;50.786;12.728;2022-07-21T06:55:25;24.00;99.90
5276;DHT22;2661;50.786;12.728;2022-07-21T06:57:52;23.90;99.90
5276;DHT22;2661;50.786;12.728;2022-07-21T07:00:19;23.90;99.90
5276;DHT22;2661;50.786;12.728;2022-07-21T07:02:46;23.90;99.90
5276;DHT22;2661;50.786;12.728;2022-07-21T07:05:13;24.00;99.90
5276;DHT22;2661;50.786;12.728;2022-07-21T07:07:40;24.00;99.90
5276;DHT22;2661;50.786;12.728;2022-07-21T07:10:07;23.90;99.90
5276;DHT22;2661;50.786;12.728;2022-07-21T07:12:34;23.90;99.90
5276;DHT22;2661;50.786;12.728;2022-07-21T07:15:23;23.90;99.90
5276;DHT22;2661;50.786;12.728;2022-07-21T07:17:50;23.80;99.90
5276;DHT22;2661;50.786;12.728;2022-07-21T07:20:17;23.80;99.90
5276;DHT22;2661;50.786;12.728;2022-07-21T07:22:44;23.90;99.90
5276;DHT22;2661;50.786;12.728;2022-07-21T07:25:10;23.90;99.90
5276;DHT22;2661;50.786;12.728;2022-07-21T07:27:37;24.00;99.90
5276;DHT22;2661;50.786;12.728;2022-07-21T07:30:04;24.10;99.90
5276;DHT22;2661;50.786;12.728;2022-07-21T07:32:35;24.20;99.90
5276;DHT22;2661;50.786;12.728;2022-07-21T07:35:02;24.30;99.90
5276;DHT22;2661;50.786;12.728;2022-07-21T07:37:29;24.40;99.90
5276;DHT22;2661;50.786;12.728;2022-07-21T07:39:55;24.50;99.90
5276;DHT22;2661;50.786;12.728;2022-07-21T07:42:22;24.50;99.90
5276;DHT22;2661;50.786;12.728;2022-07-21T07:44:49;24.70;99.90
5276;DHT22;2661;50.786;12.728;2022-07-21T07:47:16;24.80;99.90
5276;DHT22;2661;50.786;12.728;2022-07-21T07:49:42;25.00;99.90
5276;DHT22;2661;50.786;12.728;2022-07-21T07:52:09;25.20;99.90
5276;DHT22;2661;50.786;12.728;2022-07-21T07:54:36;25.30;99.90
5276;DHT22;2661;50.786;12.728;2022-07-21T07:57:03;25.40;99.90
5276;DHT22;2661;50.786;12.728;2022-07-21T07:59:30;25.70;99.90
5276;DHT22;2661;50.786;12.728;2022-07-21T08:01:57;25.80;99.90
5276;DHT22;2661;50.786;12.728;2022-07-21T08:04:23;25.90;99.90
5276;DHT22;2661;50.786;12.728;2022-07-21T08:06:50;25.80;99.90
5276;DHT22;2661;50.786;12.728;2022-07-21T08:09:17;25.70;99.90
5276;DHT22;2661;50.786;12.728;2022-07-21T08:11:46;25.70;99.90
5276;DHT22;2661;50.786;12.728;2022-07-21T08:14:14;25.60;99.90
5276;DHT22;2661;50.786;12.728;2022-07-21T08:16:41;25.40;99.90
5276;DHT22;2661;50.786;12.728;2022-07-21T08:19:08;25.30;99.90
5276;DHT22;2661;50.786;12.728;2022-07-21T08:21:34;25.10;99.90
5276;DHT22;2661;50.786;12.728;2022-07-21T08:24:21;24.90;99.90
5276;DHT22;2661;50.786;12.728;2022-07-21T08:26:48;24.70;99.90
5276;DHT22;2661;50.786;12.728;2022-07-21T08:29:15;24.60;99.90
5276;DHT22;2661;50.786;12.728;2022-07-21T08:31:41;24.50;99.90
5276;DHT22;2661;50.786;12.728;2022-07-21T08:34:09;24.30;99.90
5276;DHT22;2661;50.786;12.728;2022-07-21T08:36:35;24.20;99.90
5276;DHT22;2661;50.786;12.728;2022-07-21T08:39:02;24.10;99.90
5276;DHT22;2661;50.786;12.728;2022-07-21T08:41:29;24.00;99.90
5276;DHT22;2661;50.786;12.728;2022-07-21T08:43:57;23.90;99.90
5276;DHT22;2661;50.786;12.728;2022-07-21T08:46:24;23.80;99.90
5276;DHT22;2661;50.786;12.728;2022-07-21T08:48:51;23.80;99.90
5276;DHT22;2661;50.786;12.728;2022-07-21T08:51:19;23.80;99.90
5276;DHT22;2661;50.786;12.728;2022-07-21T08:53:46;23.60;99.90
5276;DHT22;2661;50.786;12.728;2022-07-21T08:56:13;23.50;99.90
5276;DHT22;2661;50.786;12.728;2022-07-21T08:58:39;23.30;99.90
5276;DHT22;2661;50.786;12.728;2022-07-21T09:01:06;23.10;99.90
5276;DHT22;2661;50.786;12.728;2022-07-21T09:03:33;23.00;99.90
5276;DHT22;2661;50.786;12.728;2022-07-21T09:06:05;22.80;99.90
5276;DHT22;2661;50.786;12.728;2022-07-21T09:08:37;22.60;99.90
5276;DHT22;2661;50.786;12.728;2022-07-21T09:11:11;22.50;99.90
5276;DHT22;2661;50.786;12.728;2022-07-21T09:13:41;22.40;99.90
5276;DHT22;2661;50.786;12.728;2022-07-21T09:16:08;22.20;99.90
5276;DHT22;2661;50.786;12.728;2022-07-21T09:18:46;22.10;99.90
5276;DHT22;2661;50.786;12.728;2022-07-21T09:21:12;22.00;99.90
5276;DHT22;2661;50.786;12.728;2022-07-21T09:23:41;21.80;99.90
5276;DHT22;2661;50.786;12.728;2022-07-21T09:26:08;21.70;99.90
5276;DHT22;2661;50.786;12.728;2022-07-21T09:28:34;21.60;99.90
5276;DHT22;2661;50.786;12.728;2022-07-21T09:31:05;21.40;99.90
5276;DHT22;2661;50.786;12.728;2022-07-21T09:33:33;21.40;99.90
5276;DHT22;2661;50.786;12.728;2022-07-21T09:36:19;21.30;99.90
5276;DHT22;2661;50.786;12.728;2022-07-21T09:38:53;21.20;99.90
5276;DHT22;2661;50.786;12.728;2022-07-21T09:41:24;21.20;99.90
5276;DHT22;2661;50.786;12.728;2022-07-21T09:43:55;21.20;99.90
5276;DHT22;2661;50.786;12.728;2022-07-21T09:46:23;21.20;99.90
5276;DHT22;2661;50.786;12.728;2022-07-21T09:48:52;21.10;99.90
5276;DHT22;2661;50.786;12.728;2022-07-21T09:51:38;21.10;99.90
5276;DHT22;2661;50.786;12.728;2022-07-21T09:54:11;21.10;99.90
5276;DHT22;2661;50.786;12.728;2022-07-21T09:56:42;21.10;99.90
5276;DHT22;2661;50.786;12.728;2022-07-21T09:59:10;21.20;99.90
5276;DHT22;2661;50.786;12.728;2022-07-21T10:01:37;21.30;99.90
5276;DHT22;2661;50.786;12.728;2022-07-21T10:04:06;21.30;99.90
5276;DHT22;2661;50.786;12.728;2022-07-21T10:06:36;21.30;99.90
5276;DHT22;2661;50.786;12.728;2022-07-21T10:09:05;21.30;99.90
5276;DHT22;2661;50.786;12.728;2022-07-21T10:11:31;21.40;99.90
5276;DHT22;2661;50.786;12.728;2022-07-21T10:13:58;21.40;99.90
5276;DHT22;2661;50.786;12.728;2022-07-21T10:16:25;21.40;99.90
5276;DHT22;2661;50.786;12.728;2022-07-21T10:19:00;21.40;99.90
5276;DHT22;2661;50.786;12.728;2022-07-21T10:24:01;21.40;99.90
5276;DHT22;2661;50.786;12.728;2022-07-21T10:26:27;21.50;99.90
5276;DHT22;2661;50.786;12.728;2022-07-21T10:28:54;21.50;99.90
5276;DHT22;2661;50.786;12.728;2022-07-21T10:31:24;21.60;99.90
5276;DHT22;2661;50.786;12.728;2022-07-21T10:33:58;21.60;99.90
5276;DHT22;2661;50.786;12.728;2022-07-21T10:44:33;21.50;99.90
5276;DHT22;2661;50.786;12.728;2022-07-21T10:47:10;21.40;99.90
5276;DHT22;2661;50.786;12.728;2022-07-21T10:49:53;21.40;99.90
5276;DHT22;2661;50.786;12.728;2022-07-21T10:52:52;21.40;99.90
5276;DHT22;2661;50.786;12.728;2022-07-21T10:55:21;21.30;99.90
5276;DHT22;2661;50.786;12.728;2022-07-21T10:58:13;21.30;99.90
5276;DHT22;2661;50.786;12.728;2022-07-21T11:00:46;21.20;99.90
5276;DHT22;2661;50.786;12.728;2022-07-21T11:03:24;21.20;99.90
5276;DHT22;2661;50.786;12.728;2022-07-21T11:08:33;21.20;99.90
5276;DHT22;2661;50.786;12.728;2022-07-21T11:11:07;21.20;99.90
5276;DHT22;2661;50.786;12.728;2022-07-21T11:16:20;21.10;99.90
5276;DHT22;2661;50.786;12.728;2022-07-21T11:18:47;21.20;99.90
5276;DHT22;2661;50.786;12.728;2022-07-21T11:21:14;21.20;99.90
5276;DHT22;2661;50.786;12.728;2022-07-21T11:23:43;21.20;99.90
5276;DHT22;2661;50.786;12.728;2022-07-21T11:26:11;21.30;99.90
5276;DHT22;2661;50.786;12.728;2022-07-21T11:28:38;21.40;99.90
5276;DHT22;2661;50.786;12.728;2022-07-21T11:31:06;21.50;99.90
5276;DHT22;2661;50.786;12.728;2022-07-21T11:33:35;21.70;99.90
5276;DHT22;2661;50.786;12.728;2022-07-21T11:36:02;21.70;99.90
5276;DHT22;2661;50.786;12.728;2022-07-21T11:38:37;22.00;99.90
5276;DHT22;2661;50.786;12.728;2022-07-21T11:41:37;22.10;99.90
5276;DHT22;2661;50.786;12.728;2022-07-21T11:43:56;22.30;99.90
5276;DHT22;2661;50.786;12.728;2022-07-21T11:46:23;22.30;99.90
5276;DHT22;2661;50.786;12.728;2022-07-21T11:49:05;22.30;99.90
5276;DHT22;2661;50.786;12.728;2022-07-21T11:51:32;22.30;99.90
5276;DHT22;2661;50.786;12.728;2022-07-21T11:53:59;22.30;99.90
5276;DHT22;2661;50.786;12.728;2022-07-21T11:56:26;22.20;99.90
5276;DHT22;2661;50.786;12.728;2022-07-21T11:59:09;22.20;99.90
5276;DHT22;2661;50.786;12.728;2022-07-21T12:01:53;22.20;99.90
5276;DHT22;2661;50.786;12.728;2022-07-21T12:04:54;22.20;99.90
5276;DHT22;2661;50.786;12.728;2022-07-21T12:07:36;22.30;99.90
5276;DHT22;2661;50.786;12.728;2022-07-21T12:10:03;22.40;99.90
5276;DHT22;2661;50.786;12.728;2022-07-21T12:14:56;22.40;99.90
5276;DHT22;2661;50.786;12.728;2022-07-21T12:17:35;22.40;99.90
5276;DHT22;2661;50.786;12.728;2022-07-21T12:20:03;22.40;99.90
5276;DHT22;2661;50.786;12.728;2022-07-21T12:22:33;22.50;99.90
5276;DHT22;2661;50.786;12.728;2022-07-21T12:25:00;22.60;99.90
5276;DHT22;2661;50.786;12.728;2022-07-21T12:27:27;22.70;99.90
5276;DHT22;2661;50.786;12.728;2022-07-21T12:29:53;22.80;99.90
5276;DHT22;2661;50.786;12.728;2022-07-21T12:35:15;23.10;99.90
5276;DHT22;2661;50.786;12.728;2022-07-21T12:38:19;23.10;99.90
5276;DHT22;2661;50.786;12.728;2022-07-21T12:40:42;23.10;99.90
5276;DHT22;2661;50.786;12.728;2022-07-21T12:43:29;23.10;99.90
5276;DHT22;2661;50.786;12.728;2022-07-21T12:46:09;23.00;99.90
5276;DHT22;2661;50.786;12.728;2022-07-21T12:48:36;23.10;99.90
5276;DHT22;2661;50.786;12.728;2022-07-21T12:53:30;23.40;99.90
5276;DHT22;2661;50.786;12.728;2022-07-21T12:55:56;23.70;99.90
5276;DHT22;2661;50.786;12.728;2022-07-21T12:58:23;23.80;99.90
5276;DHT22;2661;50.786;12.728;2022-07-21T13:00:50;24.00;99.90
5276;DHT22;2661;50.786;12.728;2022-07-21T13:03:17;24.00;99.90
5276;DHT22;2661;50.786;12.728;2022-07-21T13:05:44;23.90;99.90
5276;DHT22;2661;50.786;12.728;2022-07-21T13:08:11;23.70;99.90
5276;DHT22;2661;50.786;12.728;2022-07-21T13:10:37;23.50;99.90
5276;DHT22;2661;50.786;12.728;2022-07-21T13:13:04;23.50;99.90
5276;DHT22;2661;50.786;12.728;2022-07-21T13:15:31;23.60;99.90
5276;DHT22;2661;50.786;12.728;2022-07-21T13:17:57;23.70;99.90
5276;DHT22;2661;50.786;12.728;2022-07-21T13:20:24;23.80;99.90
5276;DHT22;2661;50.786;12.728;2022-07-21T13:22:51;23.90;99.90
5276;DHT22;2661;50.786;12.728;2022-07-21T13:25:18;24.10;99.90
5276;DHT22;2661;50.786;12.728;2022-07-21T13:27:44;24.00;99.90
5276;DHT22;2661;50.786;12.728;2022-07-21T13:30:14;24.00;99.90
5276;DHT22;2661;50.786;12.728;2022-07-21T13:32:41;24.10;99.90
5276;DHT22;2661;50.786;12.728;2022-07-21T13:35:08;24.20;99.90
5276;DHT22;2661;50.786;12.728;2022-07-21T13:37:53;24.40;99.90
5276;DHT22;2661;50.786;12.728;2022-07-21T13:40:20;24.60;99.90
5276;DHT22;2661;50.786;12.728;2022-07-21T13:43:07;24.50;99.90
5276;DHT22;2661;50.786;12.728;2022-07-21T13:45:54;24.70;99.90
5276;DHT22;2661;50.786;12.728;2022-07-21T13:48:21;24.70;99.90
5276;DHT22;2661;50.786;12.728;2022-07-21T13:50:47;24.70;99.90
5276;DHT22;2661;50.786;12.728;2022-07-21T13:53:14;24.80;99.90
5276;DHT22;2661;50.786;12.728;2022-07-21T13:55:41;24.90;99.90
5276;DHT22;2661;50.786;12.728;2022-07-21T13:58:07;24.90;99.90
5276;DHT22;2661;50.786;12.728;2022-07-21T14:00:35;24.90;99.90
5276;DHT22;2661;50.786;12.728;2022-07-21T14:03:09;24.80;99.90
5276;DHT22;2661;50.786;12.728;2022-07-21T14:05:35;24.80;99.90
5276;DHT22;2661;50.786;12.728;2022-07-21T14:08:02;25.00;99.90
5276;DHT22;2661;50.786;12.728;2022-07-21T14:10:29;25.00;99.90
5276;DHT22;2661;50.786;12.728;2022-07-21T14:12:56;25.20;99.90
5276;DHT22;2661;50.786;12.728;2022-07-21T14:15:23;25.10;99.90
5276;DHT22;2661;50.786;12.728;2022-07-21T14:17:49;25.10;99.90
5276;DHT22;2661;50.786;12.728;2022-07-21T14:20:22;25.20;99.90
5276;DHT22;2661;50.786;12.728;2022-07-21T14:22:52;25.20;99.90
5276;DHT22;2661;50.786;12.728;2022-07-21T14:25:19;25.30;99.90
5276;DHT22;2661;50.786;12.728;2022-07-21T14:27:46;25.30;99.90
5276;DHT22;2661;50.786;12.728;2022-07-21T14:30:14;25.30;99.90
5276;DHT22;2661;50.786;12.728;2022-07-21T14:32:41;25.30;99.90
5276;DHT22;2661;50.786;12.728;2022-07-21T14:35:08;25.30;99.90
5276;DHT22;2661;50.786;12.728;2022-07-21T14:37:35;25.40;99.90
5276;DHT22;2661;50.786;12.728;2022-07-21T14:40:02;25.60;99.90
5276;DHT22;2661;50.786;12.728;2022-07-21T14:42:31;25.70;99.90
5276;DHT22;2661;50.786;12.728;2022-07-21T14:44:57;25.90;99.90
5276;DHT22;2661;50.786;12.728;2022-07-21T14:47:24;26.10;99.90
5276;DHT22;2661;50.786;12.728;2022-07-21T14:49:51;26.30;99.90
5276;DHT22;2661;50.786;12.728;2022-07-21T14:52:18;26.30;99.90
5276;DHT22;2661;50.786;12.728;2022-07-21T14:54:45;26.30;99.90
5276;DHT22;2661;50.786;12.728;2022-07-21T14:57:11;26.20;99.90
5276;DHT22;2661;50.786;12.728;2022-07-21T14:59:38;26.30;99.90
5276;DHT22;2661;50.786;12.728;2022-07-21T15:02:05;26.40;99.90
5276;DHT22;2661;50.786;12.728;2022-07-21T15:04:38;26.50;99.90
5276;DHT22;2661;50.786;12.728;2022-07-21T15:07:05;26.70;99.90
5276;DHT22;2661;50.786;12.728;2022-07-21T15:09:31;27.00;99.90
5276;DHT22;2661;50.786;12.728;2022-07-21T15:11:58;27.00;99.90
5276;DHT22;2661;50.786;12.728;2022-07-21T15:14:25;26.80;99.90
5276;DHT22;2661;50.786;12.728;2022-07-21T15:16:52;26.60;99.90
5276;DHT22;2661;50.786;12.728;2022-07-21T15:19:19;26.50;99.90
5276;DHT22;2661;50.786;12.728;2022-07-21T15:21:46;26.50;99.90
5276;DHT22;2661;50.786;12.728;2022-07-21T15:24:13;26.50;99.90
5276;DHT22;2661;50.786;12.728;2022-07-21T15:26:42;26.60;99.90
5276;DHT22;2661;50.786;12.728;2022-07-21T15:29:08;26.80;99.90
5276;DHT22;2661;50.786;12.728;2022-07-21T15:31:35;26.90;99.90
5276;DHT22;2661;50.786;12.728;2022-07-21T15:34:02;26.80;99.90
5276;DHT22;2661;50.786;12.728;2022-07-21T15:36:29;26.60;99.90
5276;DHT22;2661;50.786;12.728;2022-07-21T15:38:56;26.50;99.90
5276;DHT22;2661;50.786;12.728;2022-07-21T15:41:24;26.50;99.90
5276;DHT22;2661;50.786;12.728;2022-07-21T15:44:10;26.50;99.90
5276;DHT22;2661;50.786;12.728;2022-07-21T15:46:37;26.90;99.90
5276;DHT22;2661;50.786;12.728;2022-07-21T15:49:05;26.90;99.90
5276;DHT22;2661;50.786;12.728;2022-07-21T15:51:32;26.90;99.90
5276;DHT22;2661;50.786;12.728;2022-07-21T15:53:59;27.00;99.90
5276;DHT22;2661;50.786;12.728;2022-07-21T15:56:26;27.30;99.90
5276;DHT22;2661;50.786;12.728;2022-07-21T15:58:52;27.50;99.90
5276;DHT22;2661;50.786;12.728;2022-07-21T16:01:37;27.80;99.90
5276;DHT22;2661;50.786;12.728;2022-07-21T16:04:04;28.00;99.90
5276;DHT22;2661;50.786;12.728;2022-07-21T16:06:31;28.20;99.90
5276;DHT22;2661;50.786;12.728;2022-07-21T16:08:58;28.20;99.90
5276;DHT22;2661;50.786;12.728;2022-07-21T16:11:24;28.20;99.90
5276;DHT22;2661;50.786;12.728;2022-07-21T16:13:51;28.10;99.90
5276;DHT22;2661;50.786;12.728;2022-07-21T16:16:18;28.10;99.90
5276;DHT22;2661;50.786;12.728;2022-07-21T16:18:45;28.20;99.90